createdAt,value
2016-04-09T00:00:34.632Z,988.32
2016-04-09T00:01:34.635Z,988.36
2016-04-09T00:02:34.842Z,988.35
2016-04-09T00:03:34.656Z,988.35
2016-04-09T00:04:34.643Z,988.36
2016-04-09T00:05:34.645Z,988.32
2016-04-09T00:06:34.648Z,988.34
2016-04-09T00:07:34.636Z,988.3
2016-04-09T00:08:34.654Z,988.28
2016-04-09T00:10:34.644Z,988.31
2016-04-09T00:11:34.647Z,988.28
2016-04-09T00:12:34.649Z,988.27
2016-04-09T00:13:34.652Z,988.25
2016-04-09T00:14:34.655Z,988.25
2016-04-09T00:15:34.642Z,988.25
2016-04-09T00:16:34.644Z,988.22
2016-04-09T00:17:34.647Z,988.26
2016-04-09T00:18:34.649Z,988.23
2016-04-09T00:19:34.855Z,988.26
2016-04-09T00:20:34.655Z,988.2
2016-04-09T00:21:34.658Z,988.24
2016-04-09T00:22:34.661Z,988.19
2016-04-09T00:23:34.663Z,988.22
2016-04-09T00:24:34.666Z,988.22
2016-04-09T00:25:34.668Z,988.17
2016-04-09T00:26:34.687Z,988.14
2016-04-09T00:27:34.659Z,988.12
2016-04-09T00:28:34.661Z,988.11
2016-04-09T00:29:34.664Z,988.13
2016-04-09T00:30:34.666Z,988.15
2016-04-09T00:31:34.669Z,988.13
2016-04-09T00:32:34.687Z,988.11
2016-04-09T00:33:34.658Z,988.16
2016-04-09T00:34:34.661Z,988.15
2016-04-09T00:36:34.698Z,988.14
2016-04-09T00:37:34.670Z,988.09
2016-04-09T00:38:34.656Z,988.06
2016-04-09T00:39:34.675Z,988.07
2016-04-09T00:40:34.661Z,988.09
2016-04-09T00:41:34.664Z,988.04
2016-04-09T00:42:34.667Z,988.03
2016-04-09T00:43:34.702Z,988.08
2016-04-09T00:44:34.673Z,988.08
2016-04-09T00:45:34.676Z,988.14
2016-04-09T00:46:34.678Z,988.08
2016-04-09T00:47:34.681Z,988.11
2016-04-09T00:48:34.668Z,988.05
2016-04-09T00:49:34.671Z,988.15
2016-04-09T00:50:34.674Z,988.11
2016-04-09T00:51:34.676Z,988.08
2016-04-09T00:52:34.679Z,988.1
2016-04-09T00:53:34.681Z,988.1
2016-04-09T00:54:34.668Z,988.1
2016-04-09T00:55:34.671Z,988.09
2016-04-09T00:56:34.704Z,988.03
2016-04-09T00:57:34.677Z,988.06
2016-04-09T00:58:34.679Z,988
2016-04-09T00:59:34.698Z,988.02
2016-04-09T01:00:34.685Z,988.05
2016-04-09T01:01:34.671Z,988.07
2016-04-09T01:02:34.878Z,988.08
2016-04-09T01:03:34.676Z,988.1
2016-04-09T01:04:34.679Z,988.09
2016-04-09T01:05:34.682Z,988.06
2016-04-09T01:06:34.684Z,988.06
2016-04-09T01:07:34.687Z,988.04
2016-04-09T01:08:34.689Z,988.08
2016-04-09T01:09:34.677Z,988.08
2016-04-09T01:10:34.680Z,988.12
2016-04-09T01:11:34.683Z,988.1
2016-04-09T01:12:34.686Z,988.07
2016-04-09T01:13:34.689Z,988.06
2016-04-09T01:14:34.691Z,988.06
2016-04-09T01:15:34.678Z,988.09
2016-04-09T01:16:34.680Z,988.06
2016-04-09T01:17:34.683Z,988.03
2016-04-09T01:18:34.686Z,988.01
2016-04-09T01:19:34.688Z,988.01
2016-04-09T01:20:34.692Z,988.03
2016-04-09T01:21:34.694Z,987.97
2016-04-09T01:22:34.682Z,987.98
2016-04-09T01:23:34.685Z,988
2016-04-09T01:24:34.687Z,988.06
2016-04-09T01:25:34.690Z,987.96
2016-04-09T01:26:34.692Z,987.98
2016-04-09T01:27:34.695Z,987.99
2016-04-09T01:28:34.698Z,987.99
2016-04-09T01:29:34.684Z,987.97
2016-04-09T01:30:34.687Z,987.95
2016-04-09T01:31:34.923Z,987.95
2016-04-09T01:32:34.692Z,987.99
2016-04-09T01:33:34.679Z,987.95
2016-04-09T01:34:34.698Z,987.96
2016-04-09T01:35:34.701Z,987.97
2016-04-09T01:36:34.704Z,987.95
2016-04-09T01:37:34.681Z,987.98
2016-04-09T01:38:34.684Z,987.99
2016-04-09T01:39:34.686Z,987.97
2016-04-09T01:40:34.673Z,987.95
2016-04-09T01:41:34.676Z,987.97
2016-04-09T01:42:34.912Z,987.98
2016-04-09T01:43:34.681Z,987.94
2016-04-09T01:44:34.683Z,987.92
2016-04-09T01:45:34.905Z,987.89
2016-04-09T01:46:34.689Z,987.93
2016-04-09T01:47:34.676Z,987.91
2016-04-09T01:48:34.679Z,987.91
2016-04-09T01:49:34.682Z,987.88
2016-04-09T01:50:34.684Z,987.87
2016-04-09T01:51:34.687Z,987.86
2016-04-09T01:52:34.689Z,987.89
2016-04-09T01:53:34.692Z,987.91
2016-04-09T01:54:34.680Z,987.86
2016-04-09T01:55:34.682Z,987.85
2016-04-09T01:56:34.685Z,987.85
2016-04-09T01:57:34.687Z,987.85
2016-04-09T01:58:34.674Z,987.89
2016-04-09T01:59:34.677Z,987.9
2016-04-09T02:00:34.680Z,987.9
2016-04-09T02:01:34.714Z,987.92
2016-04-09T02:02:34.685Z,987.93
2016-04-09T02:03:34.891Z,987.93
2016-04-09T02:04:34.690Z,987.94
2016-04-09T02:05:34.912Z,987.92
2016-04-09T02:06:34.680Z,987.94
2016-04-09T02:07:34.682Z,987.96
2016-04-09T02:08:34.685Z,987.97
2016-04-09T02:09:34.687Z,987.96
2016-04-09T02:10:34.690Z,987.98
2016-04-09T02:11:34.678Z,988
2016-04-09T02:12:34.681Z,988
2016-04-09T02:13:34.683Z,987.98
2016-04-09T02:14:34.687Z,987.95
2016-04-09T02:15:34.908Z,987.93
2016-04-09T02:16:34.676Z,987.91
2016-04-09T02:17:34.679Z,987.89
2016-04-09T02:18:34.681Z,987.93
2016-04-09T02:19:34.684Z,987.88
2016-04-09T02:20:34.702Z,987.87
2016-04-09T02:21:34.689Z,987.88
2016-04-09T02:22:34.677Z,987.89
2016-04-09T02:23:34.695Z,987.88
2016-04-09T02:24:34.683Z,987.86
2016-04-09T02:25:34.685Z,987.82
2016-04-09T02:26:34.703Z,987.84
2016-04-09T02:27:34.675Z,987.87
2016-04-09T02:28:34.677Z,987.89
2016-04-09T02:29:34.696Z,987.9
2016-04-09T02:31:34.685Z,987.92
2016-04-09T02:32:34.906Z,987.99
2016-04-09T02:33:34.706Z,987.99
2016-04-09T02:34:34.677Z,987.97
2016-04-09T02:35:34.679Z,987.93
2016-04-09T02:36:34.682Z,987.94
2016-04-09T02:37:34.670Z,987.91
2016-04-09T02:38:34.673Z,987.91
2016-04-09T02:39:34.676Z,987.89
2016-04-09T02:40:34.679Z,987.87
2016-04-09T02:41:34.681Z,987.83
2016-04-09T02:42:34.684Z,987.87
2016-04-09T02:43:34.670Z,987.88
2016-04-09T02:44:34.892Z,987.86
2016-04-09T02:45:34.676Z,987.86
2016-04-09T02:46:34.694Z,987.91
2016-04-09T02:47:34.681Z,987.95
2016-04-09T02:48:34.668Z,987.93
2016-04-09T02:49:34.671Z,987.95
2016-04-09T02:50:34.673Z,988
2016-04-09T02:51:34.676Z,987.98
2016-04-09T02:52:34.664Z,987.95
2016-04-09T02:53:34.869Z,987.95
2016-04-09T02:54:35.075Z,987.96
2016-04-09T02:55:34.671Z,987.97
2016-04-09T02:56:34.674Z,987.99
2016-04-09T02:57:34.677Z,987.99
2016-04-09T02:58:34.679Z,988
2016-04-09T03:00:34.700Z,988.02
2016-04-09T03:01:34.688Z,988.03
2016-04-09T03:02:34.659Z,987.99
2016-04-09T03:03:34.662Z,987.95
2016-04-09T03:04:34.665Z,987.98
2016-04-09T03:05:34.667Z,987.99
2016-04-09T03:06:34.670Z,988.03
2016-04-09T03:07:34.657Z,987.96
2016-04-09T03:08:34.675Z,987.93
2016-04-09T03:09:34.662Z,987.92
2016-04-09T03:10:34.665Z,987.97
2016-04-09T03:11:34.667Z,987.96
2016-04-09T03:12:34.670Z,987.94
2016-04-09T03:13:34.689Z,987.92
2016-04-09T03:14:34.660Z,987.9
2016-04-09T03:15:34.663Z,987.89
2016-04-09T03:16:34.665Z,987.88
2016-04-09T03:17:34.668Z,987.93
2016-04-09T03:18:34.655Z,987.95
2016-04-09T03:19:34.658Z,987.96
2016-04-09T03:20:34.661Z,987.93
2016-04-09T03:21:34.663Z,987.95
2016-04-09T03:22:34.666Z,987.99
2016-04-09T03:23:34.652Z,987.97
2016-04-09T03:24:34.655Z,987.95
2016-04-09T03:25:34.658Z,987.95
2016-04-09T03:26:35.083Z,987.98
2016-04-09T03:27:34.883Z,988.01
2016-04-09T03:28:34.650Z,987.98
2016-04-09T03:29:34.653Z,988.02
2016-04-09T03:30:34.656Z,988.04
2016-04-09T03:31:34.643Z,987.96
2016-04-09T03:32:34.646Z,987.9
2016-04-09T03:33:34.649Z,987.9
2016-04-09T03:34:34.651Z,987.98
2016-04-09T03:35:34.670Z,987.89
2016-04-09T03:36:34.641Z,987.83
2016-04-09T03:37:34.644Z,987.83
2016-04-09T03:38:34.647Z,987.96
2016-04-09T03:39:34.649Z,987.93
2016-04-09T03:41:34.654Z,988.01
2016-04-09T03:42:34.642Z,987.97
2016-04-09T03:43:34.645Z,987.96
2016-04-09T03:44:34.647Z,987.96
2016-04-09T03:45:34.634Z,987.96
2016-04-09T03:46:34.636Z,987.94
2016-04-09T03:47:34.639Z,988.02
2016-04-09T03:48:34.642Z,988.05
2016-04-09T03:49:34.645Z,988.02
2016-04-09T03:50:34.632Z,987.97
2016-04-09T03:51:34.634Z,987.95
2016-04-09T03:52:34.637Z,987.98
2016-04-09T03:53:34.858Z,988.01
2016-04-09T03:54:34.627Z,987.93
2016-04-09T03:55:34.630Z,987.98
2016-04-09T03:56:34.632Z,988.02
2016-04-09T03:57:34.635Z,988.03
2016-04-09T03:58:34.621Z,988.02
2016-04-09T03:59:34.624Z,987.93
2016-04-09T04:00:34.627Z,987.96
2016-04-09T04:01:34.614Z,988.02
2016-04-09T04:02:34.633Z,988
2016-04-09T04:03:34.620Z,988.01
2016-04-09T04:04:34.826Z,988
2016-04-09T04:05:34.625Z,987.95
2016-04-09T04:06:34.816Z,987.95
2016-04-09T04:07:34.615Z,987.99
2016-04-09T04:08:34.618Z,988.06
2016-04-09T04:09:34.620Z,988.06
2016-04-09T04:10:34.638Z,988.02
2016-04-09T04:11:34.610Z,987.97
2016-04-09T04:12:34.816Z,987.99
2016-04-09T04:13:34.616Z,987.98
2016-04-09T04:14:34.806Z,987.93
2016-04-09T04:15:34.606Z,987.91
2016-04-09T04:16:34.608Z,987.94
2016-04-09T04:17:34.626Z,987.94
2016-04-09T04:18:34.614Z,987.92
2016-04-09T04:19:34.631Z,987.98
2016-04-09T04:20:34.837Z,988.01
2016-04-09T04:21:34.621Z,988.01
2016-04-09T04:22:34.608Z,987.96
2016-04-09T04:23:34.595Z,987.98
2016-04-09T04:24:34.597Z,987.97
2016-04-09T04:25:34.601Z,988.02
2016-04-09T04:26:34.603Z,987.99
2016-04-09T04:27:34.997Z,988.04
2016-04-09T04:28:34.594Z,988.06
2016-04-09T04:29:34.831Z,988.04
2016-04-09T04:30:34.833Z,988.04
2016-04-09T04:31:34.602Z,988.02
2016-04-09T04:32:34.604Z,988.08
2016-04-09T04:33:34.591Z,988.08
2016-04-09T04:34:34.593Z,988.07
2016-04-09T04:35:34.580Z,988.06
2016-04-09T04:36:34.583Z,988.06
2016-04-09T04:37:34.585Z,988.06
2016-04-09T04:38:34.589Z,988.08
2016-04-09T04:39:34.591Z,988.12
2016-04-09T04:40:34.579Z,988.16
2016-04-09T04:41:34.582Z,988.18
2016-04-09T04:43:34.587Z,988.17
2016-04-09T04:44:34.589Z,988.17
2016-04-09T04:45:34.592Z,988.18
2016-04-09T04:46:34.579Z,988.21
2016-04-09T04:47:34.581Z,988.17
2016-04-09T04:48:34.569Z,988.21
2016-04-09T04:49:34.572Z,988.19
2016-04-09T04:50:34.575Z,988.17
2016-04-09T04:51:34.578Z,988.2
2016-04-09T04:52:34.580Z,988.19
2016-04-09T04:53:34.567Z,988.18
2016-04-09T04:54:34.569Z,988.15
2016-04-09T04:55:34.572Z,988.17
2016-04-09T04:56:34.575Z,988.17
2016-04-09T04:57:34.561Z,988.2
2016-04-09T04:58:34.580Z,988.16
2016-04-09T04:59:34.567Z,988.14
2016-04-09T05:00:34.585Z,988.12
2016-04-09T05:01:34.558Z,988.15
2016-04-09T05:02:34.560Z,988.19
2016-04-09T05:03:34.594Z,988.16
2016-04-09T05:04:34.566Z,988.14
2016-04-09T05:05:34.552Z,988.17
2016-04-09T05:06:34.555Z,988.18
2016-04-09T05:07:34.573Z,988.2
2016-04-09T05:08:34.560Z,988.21
2016-04-09T05:09:34.547Z,988.17
2016-04-09T05:10:34.549Z,988.17
2016-04-09T05:11:34.552Z,988.22
2016-04-09T05:12:34.586Z,988.24
2016-04-09T05:13:34.557Z,988.26
2016-04-09T05:14:34.545Z,988.24
2016-04-09T05:15:34.563Z,988.24
2016-04-09T05:16:34.551Z,988.24
2016-04-09T05:17:34.553Z,988.26
2016-04-09T05:18:34.556Z,988.25
2016-04-09T05:19:34.542Z,988.24
2016-04-09T05:20:34.576Z,988.2
2016-04-09T05:21:34.548Z,988.24
2016-04-09T05:22:34.536Z,988.24
2016-04-09T05:23:34.538Z,988.24
2016-04-09T05:24:34.542Z,988.25
2016-04-09T05:25:34.762Z,988.27
2016-04-09T05:26:34.547Z,988.29
2016-04-09T05:27:34.534Z,988.3
2016-04-09T05:28:34.536Z,988.27
2016-04-09T05:29:34.539Z,988.35
2016-04-09T05:30:34.541Z,988.32
2016-04-09T05:31:34.528Z,988.31
2016-04-09T05:32:34.547Z,988.32
2016-04-09T05:33:34.565Z,988.31
2016-04-09T05:34:34.536Z,988.37
2016-04-09T05:35:34.538Z,988.33
2016-04-09T05:36:34.541Z,988.32
2016-04-09T05:37:34.529Z,988.35
2016-04-09T05:38:34.532Z,988.42
2016-04-09T05:39:34.753Z,988.42
2016-04-09T05:40:34.771Z,988.46
2016-04-09T05:41:34.540Z,988.45
2016-04-09T05:42:34.542Z,988.43
2016-04-09T05:43:34.529Z,988.45
2016-04-09T05:44:34.532Z,988.47
2016-04-09T05:45:34.534Z,988.44
2016-04-09T05:46:34.537Z,988.42
2016-04-09T05:47:34.523Z,988.46
2016-04-09T05:48:34.526Z,988.43
2016-04-09T05:49:34.545Z,988.44
2016-04-09T05:50:34.532Z,988.55
2016-04-09T05:51:34.738Z,988.53
2016-04-09T05:52:34.522Z,988.53
2016-04-09T05:53:34.540Z,988.52
2016-04-09T05:55:34.530Z,988.54
2016-04-09T05:56:34.534Z,988.54
2016-04-09T05:57:34.536Z,988.48
2016-04-09T05:58:34.523Z,988.49
2016-04-09T05:59:34.525Z,988.53
2016-04-09T06:00:34.544Z,988.53
2016-04-09T06:01:34.531Z,988.53
2016-04-09T06:02:34.533Z,988.52
2016-04-09T06:03:34.739Z,988.56
2016-04-09T06:04:34.523Z,988.57
2016-04-09T06:05:34.526Z,988.6
2016-04-09T06:06:34.529Z,988.61
2016-04-09T06:07:34.532Z,988.6
2016-04-09T06:08:34.535Z,988.62
2016-04-09T06:09:34.537Z,988.59
2016-04-09T06:10:34.540Z,988.6
2016-04-09T06:11:34.542Z,988.64
2016-04-09T06:12:34.529Z,988.66
2016-04-09T06:13:34.532Z,988.66
2016-04-09T06:14:34.534Z,988.66
2016-04-09T06:15:34.554Z,988.67
2016-04-09T06:16:34.540Z,988.69
2016-04-09T06:17:34.527Z,988.72
2016-04-09T06:18:34.530Z,988.73
2016-04-09T06:19:34.735Z,988.69
2016-04-09T06:20:34.534Z,988.65
2016-04-09T06:21:34.537Z,988.64
2016-04-09T06:22:34.540Z,988.62
2016-04-09T06:23:34.542Z,988.64
2016-04-09T06:24:34.748Z,988.63
2016-04-09T06:25:34.549Z,988.59
2016-04-09T06:26:34.536Z,988.57
2016-04-09T06:27:34.539Z,988.57
2016-04-09T06:28:34.541Z,988.6
2016-04-09T06:29:34.544Z,988.59
2016-04-09T06:30:34.547Z,988.61
2016-04-09T06:32:34.536Z,988.63
2016-04-09T06:33:34.538Z,988.61
2016-04-09T06:34:34.542Z,988.59
2016-04-09T06:35:34.544Z,988.61
2016-04-09T06:36:34.750Z,988.57
2016-04-09T06:37:34.550Z,988.6
2016-04-09T06:38:34.552Z,988.59
2016-04-09T06:39:34.555Z,988.6
2016-04-09T06:40:34.557Z,988.61
2016-04-09T06:41:34.561Z,988.59
2016-04-09T06:42:34.563Z,988.59
2016-04-09T06:43:34.582Z,988.63
2016-04-09T06:44:34.552Z,988.63
2016-04-09T06:45:34.571Z,988.64
2016-04-09T06:46:34.557Z,988.66
2016-04-09T06:47:34.560Z,988.66
2016-04-09T06:48:34.563Z,988.64
2016-04-09T06:49:34.566Z,988.67
2016-04-09T06:50:34.569Z,988.68
2016-04-09T06:51:34.571Z,988.72
2016-04-09T06:52:34.574Z,988.74
2016-04-09T06:53:34.620Z,988.72
2016-04-09T06:54:34.666Z,988.69
2016-04-09T06:55:34.714Z,988.73
2016-04-09T06:56:34.761Z,988.72
2016-04-09T06:57:34.808Z,988.69
2016-04-09T06:58:34.828Z,988.72
2016-04-09T06:59:34.846Z,988.71
2016-04-09T07:00:34.865Z,988.74
2016-04-09T07:01:34.868Z,988.76
2016-04-09T07:02:34.902Z,988.87
2016-04-09T07:03:34.911Z,988.84
2016-04-09T07:05:35.146Z,988.87
2016-04-09T07:06:34.921Z,988.9
2016-04-09T07:07:34.944Z,988.85
2016-04-09T07:08:34.965Z,988.83
2016-04-09T07:09:34.939Z,988.85
2016-04-09T07:10:34.944Z,988.82
2016-04-09T07:11:34.949Z,988.84
2016-04-09T07:12:34.954Z,988.84
2016-04-09T07:13:34.957Z,988.82
2016-04-09T07:14:34.962Z,988.81
2016-04-09T07:15:34.965Z,988.86
2016-04-09T07:16:34.969Z,988.84
2016-04-09T07:17:34.972Z,988.86
2016-04-09T07:18:34.975Z,988.86
2016-04-09T07:19:34.993Z,988.83
2016-04-09T07:20:34.980Z,988.86
2016-04-09T07:21:35.186Z,988.88
2016-04-09T07:22:34.985Z,988.92
2016-04-09T07:23:35.003Z,988.95
2016-04-09T07:24:34.990Z,988.95
2016-04-09T07:25:35.102Z,988.97
2016-04-09T07:26:35.011Z,988.92
2016-04-09T07:27:35.218Z,988.93
2016-04-09T07:29:35.049Z,988.96
2016-04-09T07:30:35.019Z,988.94
2016-04-09T07:31:35.038Z,988.96
2016-04-09T07:32:35.040Z,989.03
2016-04-09T07:33:35.027Z,989.05
2016-04-09T07:34:35.015Z,989.09
2016-04-09T07:35:35.032Z,989.02
2016-04-09T07:36:35.020Z,989.06
2016-04-09T07:37:35.038Z,989.01
2016-04-09T07:38:35.103Z,989.04
2016-04-09T07:39:35.043Z,989.07
2016-04-09T07:40:35.046Z,989.05
2016-04-09T07:41:35.049Z,989.05
2016-04-09T07:42:35.255Z,989
2016-04-09T07:43:35.070Z,989.04
2016-04-09T07:45:35.060Z,989.04
2016-04-09T07:46:35.079Z,989.1
2016-04-09T07:47:35.065Z,989.11
2016-04-09T07:48:35.068Z,989.1
2016-04-09T07:49:35.070Z,989.13
2016-04-09T07:50:35.073Z,989.15
2016-04-09T07:51:35.076Z,989.13
2016-04-09T07:52:35.078Z,989.11
2016-04-09T07:53:35.081Z,989.12
2016-04-09T07:54:35.099Z,989.08
2016-04-09T07:55:35.102Z,989.1
2016-04-09T07:56:35.105Z,989.15
2016-04-09T07:57:35.108Z,989.19
2016-04-09T07:58:35.126Z,989.08
2016-04-09T07:59:35.129Z,989.1
2016-04-09T08:01:35.118Z,989.06
2016-04-09T08:02:35.137Z,989.12
2016-04-09T08:03:35.154Z,989.13
2016-04-09T08:04:35.142Z,989.13
2016-04-09T08:05:35.145Z,989.13
2016-04-09T08:06:35.148Z,989.1
2016-04-09T08:07:35.354Z,989.14
2016-04-09T08:08:35.153Z,989.15
2016-04-09T08:09:35.156Z,989.1
2016-04-09T08:10:35.159Z,989.11
2016-04-09T08:11:35.396Z,989.1
2016-04-09T08:12:35.195Z,989.07
2016-04-09T08:13:35.182Z,989.06
2016-04-09T08:14:35.185Z,989.09
2016-04-09T08:15:35.187Z,989.08
2016-04-09T08:16:35.190Z,989.05
2016-04-09T08:17:35.193Z,989.05
2016-04-09T08:18:35.195Z,989.07
2016-04-09T08:19:35.198Z,989.06
2016-04-09T08:20:35.217Z,989.06
2016-04-09T08:21:35.219Z,989.05
2016-04-09T08:22:35.222Z,989.08
2016-04-09T08:23:35.225Z,989.13
2016-04-09T08:24:35.244Z,989.11
2016-04-09T08:25:35.230Z,989.13
2016-04-09T08:26:35.233Z,989.11
2016-04-09T08:27:35.267Z,989.12
2016-04-09T08:28:35.254Z,989.14
2016-04-09T08:30:35.274Z,989.12
2016-04-09T08:31:35.262Z,989.11
2016-04-09T08:32:35.311Z,989.14
2016-04-09T08:33:35.283Z,989.12
2016-04-09T08:34:35.285Z,989.09
2016-04-09T08:35:35.538Z,989.07
2016-04-09T08:36:35.290Z,989.08
2016-04-09T08:37:35.310Z,989.05
2016-04-09T08:38:35.515Z,989.07
2016-04-09T08:39:35.330Z,989.08
2016-04-09T08:40:35.379Z,989.05
2016-04-09T08:41:35.320Z,989.02
2016-04-09T08:42:35.338Z,989.08
2016-04-09T08:43:35.341Z,989.05
2016-04-09T08:44:35.390Z,989.08
2016-04-09T08:45:35.346Z,989.05
2016-04-09T08:46:35.381Z,989.11
2016-04-09T08:47:35.351Z,989.09
2016-04-09T08:48:35.354Z,989.09
2016-04-09T08:49:35.467Z,989.07
2016-04-09T08:50:35.376Z,989.08
2016-04-09T08:51:35.378Z,989.07
2016-04-09T08:52:35.397Z,989.09
2016-04-09T08:53:35.400Z,989.12
2016-04-09T08:54:35.402Z,989.13
2016-04-09T08:55:35.420Z,989.11
2016-04-09T08:56:35.423Z,989.07
2016-04-09T08:57:35.410Z,989.06
2016-04-09T08:58:35.413Z,989.08
2016-04-09T08:59:35.447Z,989.1
2016-04-09T09:00:35.433Z,989.04
2016-04-09T09:01:35.451Z,989.07
2016-04-09T09:02:35.455Z,989.07
2016-04-09T09:03:35.660Z,989.09
2016-04-09T09:04:35.460Z,989.11
2016-04-09T09:05:35.479Z,989.12
2016-04-09T09:06:35.482Z,989.15
2016-04-09T09:07:35.499Z,989.12
2016-04-09T09:08:35.488Z,989.11
2016-04-09T09:12:35.530Z,989.16
2016-04-09T09:13:35.532Z,989.18
2016-04-09T09:14:35.722Z,989.16
2016-04-09T09:15:35.553Z,989.2
2016-04-09T09:16:35.540Z,989.2
2016-04-09T09:17:35.543Z,989.23
2016-04-09T09:18:35.779Z,989.23
2016-04-09T09:19:35.563Z,989.23
2016-04-09T09:20:35.582Z,989.22
2016-04-09T09:22:35.587Z,989.19
2016-04-09T09:23:35.590Z,989.22
2016-04-09T09:24:35.593Z,989.16
2016-04-09T09:25:35.814Z,989.23
2016-04-09T09:26:35.801Z,989.2
2016-04-09T09:27:35.648Z,989.19
2016-04-09T09:28:35.619Z,989.18
2016-04-09T09:29:35.856Z,989.2
2016-04-09T09:30:35.843Z,989.17
2016-04-09T09:31:35.643Z,989.19
2016-04-09T09:33:35.883Z,989.21
2016-04-09T09:34:35.886Z,989.21
2016-04-09T09:35:36.075Z,989.19
2016-04-09T09:36:35.906Z,989.18
2016-04-09T09:37:35.691Z,989.19
2016-04-09T09:38:35.911Z,989.21
2016-04-09T09:39:35.711Z,989.16
2016-04-09T09:40:35.730Z,989.15
2016-04-09T09:41:35.716Z,989.16
2016-04-09T09:43:35.738Z,989.14
2016-04-09T09:44:35.740Z,989.11
2016-04-09T09:45:35.743Z,989.14
2016-04-09T09:46:35.746Z,989.17
2016-04-09T09:47:35.764Z,989.15
2016-04-09T09:48:35.970Z,989.2
2016-04-09T09:49:35.851Z,989.15
2016-04-09T09:50:35.776Z,989.18
2016-04-09T09:51:35.779Z,989.16
2016-04-09T09:52:35.841Z,989.17
2016-04-09T09:53:35.796Z,989.16
2016-04-09T09:54:35.799Z,989.17
2016-04-09T09:55:35.802Z,989.16
2016-04-09T09:57:35.824Z,989.17
2016-04-09T09:58:35.826Z,989.18
2016-04-09T09:59:35.860Z,989.18
2016-04-09T10:00:35.893Z,989.16
2016-04-09T10:01:36.085Z,989.16
2016-04-09T10:02:35.869Z,989.18
2016-04-09T10:03:35.887Z,989.12
2016-04-09T10:04:35.875Z,989.11
2016-04-09T10:05:35.892Z,989.13
2016-04-09T10:06:35.895Z,989.09
2016-04-09T10:07:35.913Z,989.13
2016-04-09T10:08:35.901Z,989.12
2016-04-09T10:09:35.919Z,989.11
2016-04-09T10:10:35.922Z,989.12
2016-04-09T10:11:35.941Z,989.14
2016-04-09T10:12:35.943Z,989.15
2016-04-09T10:13:35.960Z,989.12
2016-04-09T10:14:35.963Z,989.12
2016-04-09T10:15:35.967Z,989.07
2016-04-09T10:16:35.969Z,989.12
2016-04-09T10:17:35.987Z,989.1
2016-04-09T10:18:36.194Z,989.12
2016-04-09T10:19:36.196Z,989.08
2016-04-09T10:20:36.012Z,989.09
2016-04-09T10:21:36.015Z,989.07
2016-04-09T10:22:36.017Z,989.06
2016-04-09T10:23:36.035Z,989.09
2016-04-09T10:24:36.037Z,989.09
2016-04-09T10:25:36.040Z,989.1
2016-04-09T10:26:36.059Z,989.04
2016-04-09T10:27:36.062Z,989.06
2016-04-09T10:28:36.080Z,989.09
2016-04-09T10:29:36.082Z,989.05
2016-04-09T10:30:36.084Z,989.06
2016-04-09T10:31:36.103Z,989.09
2016-04-09T10:32:36.309Z,989.07
2016-04-09T10:33:36.312Z,989.05
2016-04-09T10:34:36.127Z,989.03
2016-04-09T10:35:36.536Z,989.01
2016-04-09T10:36:36.133Z,989.02
2016-04-09T10:37:36.151Z,988.97
2016-04-09T10:38:36.170Z,988.94
2016-04-09T10:39:36.172Z,988.91
2016-04-09T10:40:36.174Z,988.96
2016-04-09T10:41:36.178Z,988.94
2016-04-09T10:42:36.196Z,988.97
2016-04-09T10:43:36.199Z,988.93
2016-04-09T10:44:36.217Z,988.95
2016-04-09T10:45:36.219Z,988.95
2016-04-09T10:46:36.222Z,988.92
2016-04-09T10:47:36.240Z,988.94
2016-04-09T10:48:36.243Z,988.94
2016-04-09T10:49:36.261Z,988.95
2016-04-09T10:50:36.264Z,988.97
2016-04-09T10:52:36.285Z,988.95
2016-04-09T10:53:36.287Z,988.95
2016-04-09T10:54:36.306Z,988.92
2016-04-09T10:55:36.309Z,988.89
2016-04-09T10:56:36.312Z,988.89
2016-04-09T10:57:36.346Z,988.95
2016-04-09T10:58:36.332Z,988.94
2016-04-09T10:59:36.381Z,988.96
2016-04-09T11:00:36.587Z,988.95
2016-04-09T11:02:36.375Z,988.95
2016-04-09T11:03:36.378Z,988.93
2016-04-09T11:04:36.427Z,988.97
2016-04-09T11:05:36.398Z,988.95
2016-04-09T11:06:36.431Z,988.9
2016-04-09T11:07:36.403Z,988.91
2016-04-09T11:08:36.422Z,988.86
2016-04-09T11:09:36.472Z,988.84
2016-04-09T11:10:36.427Z,988.89
2016-04-09T11:11:36.446Z,988.85
2016-04-09T11:12:36.447Z,988.82
2016-04-09T11:13:36.513Z,988.86
2016-04-09T11:14:36.469Z,988.83
2016-04-09T11:15:36.472Z,988.87
2016-04-09T11:16:36.491Z,988.81
2016-04-09T11:17:36.493Z,988.81
2016-04-09T11:18:36.543Z,988.87
2016-04-09T11:19:36.545Z,988.89
2016-04-09T11:20:36.719Z,988.88
2016-04-09T11:21:36.722Z,988.85
2016-04-09T11:22:36.554Z,988.9
2016-04-09T11:23:36.540Z,988.9
2016-04-09T11:24:36.746Z,988.87
2016-04-09T11:25:36.562Z,988.86
2016-04-09T11:26:37.174Z,988.84
2016-04-09T11:27:36.613Z,988.87
2016-04-09T11:28:36.585Z,988.85
2016-04-09T11:29:36.604Z,988.86
2016-04-09T11:30:36.606Z,988.83
2016-04-09T11:31:36.609Z,988.81
2016-04-09T11:32:36.659Z,988.85
2016-04-09T11:33:36.629Z,988.88
2016-04-09T11:34:36.632Z,988.83
2016-04-09T11:35:36.634Z,988.88
2016-04-09T11:36:36.701Z,988.89
2016-04-09T11:37:36.656Z,988.9
2016-04-09T11:38:36.674Z,988.9
2016-04-09T11:39:36.677Z,988.93
2016-04-09T11:40:36.680Z,988.89
2016-04-09T11:41:36.697Z,988.85
2016-04-09T11:42:36.700Z,988.88
2016-04-09T11:43:36.703Z,988.84
2016-04-09T11:44:36.722Z,988.83
2016-04-09T11:45:36.724Z,988.84
2016-04-09T11:46:36.727Z,988.84
2016-04-09T11:47:36.996Z,988.81
2016-04-09T11:48:36.748Z,988.84
2016-04-09T11:49:36.766Z,988.8
2016-04-09T11:50:36.769Z,988.84
2016-04-09T11:51:36.771Z,988.82
2016-04-09T11:52:36.790Z,988.81
2016-04-09T11:53:36.793Z,988.83
2016-04-09T11:54:37.264Z,988.83
2016-04-09T11:55:36.845Z,988.83
2016-04-09T11:57:36.850Z,988.89
2016-04-09T11:58:37.071Z,988.85
2016-04-09T12:00:36.859Z,988.85
2016-04-09T12:01:37.064Z,988.8
2016-04-09T12:02:36.895Z,988.75
2016-04-09T12:03:36.898Z,988.71
2016-04-09T12:04:36.900Z,988.71
2016-04-09T12:05:36.903Z,988.71
2016-04-09T12:06:36.906Z,988.75
2016-04-09T12:07:36.924Z,988.75
2016-04-09T12:08:36.927Z,988.7
2016-04-09T12:09:36.945Z,988.71
2016-04-09T12:10:36.978Z,988.69
2016-04-09T12:11:37.169Z,988.63
2016-04-09T12:12:36.969Z,988.65
2016-04-09T12:13:36.986Z,988.67
2016-04-09T12:14:36.989Z,988.62
2016-04-09T12:15:37.008Z,988.64
2016-04-09T12:16:37.011Z,988.68
2016-04-09T12:17:37.216Z,988.65
2016-04-09T12:18:37.032Z,988.71
2016-04-09T12:19:37.035Z,988.67
2016-04-09T12:20:37.052Z,988.65
2016-04-09T12:21:37.055Z,988.68
2016-04-09T12:22:37.074Z,988.73
2016-04-09T12:23:37.076Z,988.72
2016-04-09T12:24:37.095Z,988.73
2016-04-09T12:25:37.098Z,988.76
2016-04-09T12:26:37.100Z,988.75
2016-04-09T12:27:37.118Z,988.69
2016-04-09T12:28:37.121Z,988.65
2016-04-09T12:29:37.140Z,988.6
2016-04-09T12:30:37.142Z,988.6
2016-04-09T12:31:37.160Z,988.56
2016-04-09T12:32:37.163Z,988.56
2016-04-09T12:33:37.166Z,988.52
2016-04-09T12:34:37.185Z,988.56
2016-04-09T12:36:37.221Z,988.59
2016-04-09T12:37:37.208Z,988.54
2016-04-09T12:39:37.448Z,988.54
2016-04-09T12:40:37.248Z,988.56
2016-04-09T12:41:37.250Z,988.55
2016-04-09T12:42:37.268Z,988.53
2016-04-09T12:43:37.271Z,988.5
2016-04-09T12:44:37.274Z,988.45
2016-04-09T12:45:37.292Z,988.44
2016-04-09T12:46:37.295Z,988.44
2016-04-09T12:47:37.314Z,988.37
2016-04-09T12:48:37.316Z,988.44
2016-04-09T12:49:37.333Z,988.43
2016-04-09T12:50:37.336Z,988.43
2016-04-09T12:51:37.355Z,988.44
2016-04-09T12:52:37.561Z,988.4
2016-04-09T12:53:37.377Z,988.39
2016-04-09T12:54:37.380Z,988.38
2016-04-09T12:55:37.397Z,988.37
2016-04-09T12:56:37.399Z,988.32